createdAt,value
2023-02-16T00:02:13.977Z,33.80
2023-02-16T00:04:42.213Z,33.30
2023-02-16T00:07:10.611Z,33.42
2023-02-16T00:09:38.757Z,36.65
2023-02-16T00:12:34.672Z,35.25
2023-02-16T00:15:12.626Z,26.73
2023-02-16T00:17:40.871Z,33.50
2023-02-16T00:20:15.753Z,20.83
2023-02-16T00:22:45.135Z,30.38
2023-02-16T00:25:13.420Z,25.67
2023-02-16T00:27:41.661Z,34.88
2023-02-16T00:30:16.492Z,34.33
2023-02-16T00:32:45.383Z,35.67
2023-02-16T00:35:16.401Z,30.38
2023-02-16T00:37:44.833Z,32.33
2023-02-16T00:40:15.055Z,32.17
2023-02-16T00:42:44.680Z,34.67
2023-02-16T00:45:18.129Z,34.35
2023-02-16T00:47:48.994Z,33.42
2023-02-16T00:50:19.285Z,31.80
2023-02-16T00:52:50.770Z,37.05
2023-02-16T00:55:21.151Z,27.10
2023-02-16T00:57:50.804Z,37.22
2023-02-16T01:00:24.480Z,37.85
2023-02-16T01:02:55.090Z,29.95
2023-02-16T01:05:23.685Z,35.95
2023-02-16T01:08:09.448Z,32.28
2023-02-16T01:10:56.743Z,37.72
2023-02-16T01:13:26.007Z,38.33
2023-02-16T01:15:55.878Z,36.13
2023-02-16T01:18:24.502Z,30.88
2023-02-16T01:20:52.783Z,31.00
2023-02-16T01:23:20.960Z,31.00
2023-02-16T01:25:49.128Z,37.83
2023-02-16T01:28:21.541Z,39.30
2023-02-16T01:30:50.741Z,38.22
2023-02-16T01:33:20.804Z,37.80
2023-02-16T01:35:49.778Z,38.65
2023-02-16T01:38:20.548Z,36.60
2023-02-16T01:40:58.227Z,38.13
2023-02-16T01:43:30.008Z,35.50
2023-02-16T01:46:03.146Z,35.00
2023-02-16T01:48:33.920Z,37.13
2023-02-16T01:51:09.149Z,33.38
2023-02-16T01:53:44.176Z,38.40
2023-02-16T01:56:21.347Z,42.70
2023-02-16T01:58:53.519Z,37.00
2023-02-16T02:01:49.524Z,36.25
2023-02-16T02:04:47.273Z,36.50
2023-02-16T02:07:25.791Z,37.22
2023-02-16T02:10:01.315Z,39.80
2023-02-16T02:12:38.352Z,33.70
2023-02-16T02:15:09.273Z,39.45
2023-02-16T02:17:38.430Z,37.60
2023-02-16T02:20:16.145Z,39.92
2023-02-16T02:23:34.041Z,39.42
2023-02-16T02:26:44.683Z,40.33
2023-02-16T02:29:41.817Z,33.35
2023-02-16T02:32:22.947Z,40.05
2023-02-16T02:35:03.864Z,39.35
2023-02-16T02:37:41.582Z,35.03
2023-02-16T02:40:16.775Z,40.00
2023-02-16T02:42:55.096Z,33.75
2023-02-16T02:45:28.520Z,36.60
2023-02-16T02:47:57.141Z,34.03
2023-02-16T02:51:06.958Z,39.05
2023-02-16T02:53:38.856Z,34.40
2023-02-16T02:56:26.965Z,33.20
2023-02-16T02:59:16.316Z,39.67
2023-02-16T03:01:51.235Z,40.47
2023-02-16T03:04:24.400Z,37.65
2023-02-16T03:06:55.697Z,36.80
2023-02-16T03:09:24.472Z,37.97
2023-02-16T03:12:13.979Z,37.05
2023-02-16T03:14:45.766Z,39.00
2023-02-16T03:17:36.399Z,30.85
2023-02-16T03:20:26.250Z,33.17
2023-02-16T03:23:11.866Z,38.17
2023-02-16T03:25:59.481Z,35.63
2023-02-16T03:28:47.831Z,37.95
2023-02-16T03:31:19.740Z,31.02
2023-02-16T03:33:54.814Z,37.35
2023-02-16T03:36:24.294Z,36.63
2023-02-16T03:38:53.138Z,33.85
2023-02-16T03:41:21.374Z,36.63
2023-02-16T03:43:49.677Z,34.00
2023-02-16T03:46:17.940Z,34.97
2023-02-16T03:48:46.073Z,38.30
2023-02-16T03:51:15.613Z,36.75
2023-02-16T03:53:43.805Z,36.45
2023-02-16T03:56:12.062Z,38.40
2023-02-16T03:58:40.268Z,34.35
2023-02-16T04:01:08.630Z,35.00
2023-02-16T04:03:36.840Z,37.35
2023-02-16T04:06:05.314Z,36.60
2023-02-16T04:08:34.986Z,35.05
2023-02-16T04:11:23.252Z,37.22
2023-02-16T04:13:50.492Z,34.22
2023-02-16T04:16:18.786Z,34.85
2023-02-16T04:18:47.397Z,32.97
2023-02-16T04:21:15.645Z,36.47
2023-02-16T04:23:45.187Z,37.40
2023-02-16T04:26:13.378Z,36.22
2023-02-16T04:28:41.549Z,37.08
2023-02-16T04:31:10.069Z,36.25
2023-02-16T04:33:38.350Z,33.08
2023-02-16T04:36:09.598Z,37.08
2023-02-16T04:38:37.754Z,33.95
2023-02-16T04:41:07.683Z,39.15
2023-02-16T04:43:35.905Z,38.80
2023-02-16T04:46:04.183Z,37.00
2023-02-16T04:48:32.435Z,34.05
2023-02-16T04:51:00.666Z,34.03
2023-02-16T04:53:28.918Z,29.45
2023-02-16T04:55:57.456Z,37.35
2023-02-16T04:58:27.218Z,35.83
2023-02-16T05:00:55.422Z,30.98
2023-02-16T05:03:23.641Z,34.80
2023-02-16T05:05:51.809Z,36.75
2023-02-16T05:08:20.963Z,38.08
2023-02-16T05:11:10.353Z,35.80
2023-02-16T05:13:59.652Z,36.38
2023-02-16T05:16:27.940Z,35.30
2023-02-16T05:18:58.651Z,36.03
2023-02-16T05:21:32.612Z,28.90
2023-02-16T05:24:01.508Z,33.00
2023-02-16T05:26:30.133Z,35.13
2023-02-16T05:29:01.219Z,30.23
2023-02-16T05:31:30.185Z,33.72
2023-02-16T05:33:58.976Z,35.05
2023-02-16T05:36:27.200Z,35.80
2023-02-16T05:38:55.464Z,36.90
2023-02-16T05:41:26.857Z,36.53
2023-02-16T05:43:56.449Z,30.35
2023-02-16T05:46:26.692Z,31.50
2023-02-16T05:48:55.325Z,29.80
2023-02-16T05:51:23.677Z,36.08
2023-02-16T05:53:52.559Z,27.70
2023-02-16T05:56:21.823Z,32.88
2023-02-16T05:58:50.472Z,33.00
2023-02-16T06:01:19.014Z,33.67
2023-02-16T06:03:49.562Z,30.45
2023-02-16T06:06:18.311Z,33.70
2023-02-16T06:08:47.090Z,32.45
2023-02-16T06:11:29.262Z,33.08
2023-02-16T06:13:59.295Z,27.15
2023-02-16T06:16:28.723Z,35.70
2023-02-16T06:18:59.164Z,32.90
2023-02-16T06:21:28.070Z,34.30
2023-02-16T06:23:56.783Z,31.77
2023-02-16T06:26:25.502Z,31.33
2023-02-16T06:28:53.862Z,34.85
2023-02-16T06:31:22.769Z,33.42
2023-02-16T06:33:52.210Z,33.95
2023-02-16T06:36:24.800Z,28.00
2023-02-16T06:38:53.370Z,31.83
2023-02-16T06:41:33.695Z,30.60
2023-02-16T06:44:02.675Z,31.00
2023-02-16T06:46:31.555Z,35.10
2023-02-16T06:49:00.240Z,30.80
2023-02-16T06:51:30.720Z,28.77
2023-02-16T06:53:59.427Z,31.45
2023-02-16T06:56:27.988Z,30.52
2023-02-16T06:58:56.197Z,62.42
2023-02-16T07:01:26.098Z,38.38
2023-02-16T07:03:56.249Z,35.90
2023-02-16T07:06:26.164Z,33.60
2023-02-16T07:08:56.181Z,28.90
2023-02-16T07:11:24.784Z,32.85
2023-02-16T07:13:53.451Z,33.22
2023-02-16T07:16:21.837Z,31.55
2023-02-16T07:18:50.004Z,34.17
2023-02-16T07:21:18.279Z,27.38
2023-02-16T07:23:46.933Z,34.00
2023-02-16T07:26:16.921Z,31.35
2023-02-16T07:28:45.799Z,34.17
2023-02-16T07:31:16.217Z,33.65
2023-02-16T07:33:45.071Z,28.73
2023-02-16T07:36:14.672Z,32.22
2023-02-16T07:38:43.217Z,32.13
2023-02-16T07:41:12.222Z,32.78
2023-02-16T07:43:43.165Z,36.30
2023-02-16T07:46:11.745Z,32.72
2023-02-16T07:48:40.234Z,37.15
2023-02-16T07:51:08.836Z,35.38
2023-02-16T07:53:37.155Z,34.25
2023-02-16T07:56:05.724Z,34.42
2023-02-16T07:58:34.607Z,31.55
2023-02-16T08:01:10.954Z,35.40
2023-02-16T08:03:39.714Z,29.92
2023-02-16T08:06:09.012Z,31.75
2023-02-16T08:08:38.430Z,32.80
2023-02-16T08:11:11.895Z,32.72
2023-02-16T08:13:41.104Z,29.42
2023-02-16T08:16:12.830Z,34.30
2023-02-16T08:18:42.103Z,30.83
2023-02-16T08:21:14.627Z,27.17
2023-02-16T08:23:47.702Z,28.65
2023-02-16T08:26:18.389Z,31.85
2023-02-16T08:28:47.465Z,28.38
2023-02-16T08:31:19.796Z,33.78
2023-02-16T08:33:49.302Z,28.42
2023-02-16T08:36:21.209Z,32.00
2023-02-16T08:38:52.264Z,33.20
2023-02-16T08:41:22.767Z,34.45
2023-02-16T08:43:52.447Z,33.97
2023-02-16T08:46:23.002Z,33.95
2023-02-16T08:48:51.367Z,34.90
2023-02-16T08:51:20.799Z,34.40
2023-02-16T08:53:49.564Z,36.00
2023-02-16T08:56:17.701Z,35.38
2023-02-16T08:58:46.185Z,29.05
2023-02-16T09:01:16.701Z,34.72
2023-02-16T09:03:48.530Z,32.55
2023-02-16T09:06:20.491Z,26.83
2023-02-16T09:08:52.761Z,25.20
2023-02-16T09:11:21.847Z,31.88
2023-02-16T09:13:50.536Z,35.38
2023-02-16T09:16:20.486Z,29.67
2023-02-16T09:18:51.101Z,28.65
2023-02-16T09:21:20.946Z,33.83
2023-02-16T09:23:50.875Z,32.58
2023-02-16T09:26:20.666Z,33.30
2023-02-16T09:28:50.573Z,30.33
2023-02-16T09:31:26.002Z,27.55
2023-02-16T09:36:24.810Z,34.88
2023-02-16T09:38:54.588Z,33.45
2023-02-16T09:41:29.349Z,39.80
2023-02-16T09:44:00.899Z,33.13
2023-02-16T09:46:31.687Z,35.05
2023-02-16T09:49:03.827Z,34.75
2023-02-16T09:51:37.556Z,33.38
2023-02-16T09:54:21.620Z,30.88
2023-02-16T09:56:55.656Z,37.45
2023-02-16T09:59:38.587Z,30.05
2023-02-16T10:02:42.207Z,35.65
2023-02-16T10:05:22.843Z,33.55
2023-02-16T10:07:58.211Z,30.13
2023-02-16T10:10:31.834Z,29.50
2023-02-16T10:13:07.685Z,35.28
2023-02-16T10:15:36.964Z,32.22
2023-02-16T10:18:08.279Z,32.47
2023-02-16T10:20:39.546Z,35.72
2023-02-16T10:23:10.601Z,31.13
2023-02-16T10:25:43.344Z,34.13
2023-02-16T10:28:18.388Z,35.80
2023-02-16T10:30:51.890Z,35.85
2023-02-16T10:33:27.092Z,38.60
2023-02-16T10:36:02.172Z,34.58
2023-02-16T10:38:37.695Z,35.13
2023-02-16T10:43:41.659Z,36.50
2023-02-16T10:46:14.355Z,30.45
2023-02-16T10:48:42.980Z,25.65
2023-02-16T10:51:14.290Z,34.00
2023-02-16T10:53:45.985Z,35.95
2023-02-16T10:56:38.529Z,41.90
2023-02-16T10:59:09.439Z,39.80
2023-02-16T11:01:40.684Z,34.70
2023-02-16T11:04:10.351Z,29.52
2023-02-16T11:06:40.014Z,27.23
2023-02-16T11:09:08.398Z,37.60
2023-02-16T11:11:40.770Z,36.67
2023-02-16T11:14:10.589Z,32.03
2023-02-16T11:16:39.281Z,37.10
2023-02-16T11:19:19.628Z,31.85
2023-02-16T11:21:50.715Z,33.13
2023-02-16T11:24:28.077Z,37.58
2023-02-16T11:27:07.555Z,37.83
2023-02-16T11:29:36.417Z,38.88
2023-02-16T11:32:09.938Z,32.97
2023-02-16T11:34:42.588Z,33.70
2023-02-16T11:37:19.839Z,29.15
2023-02-16T11:39:53.520Z,31.73
2023-02-16T11:42:30.014Z,29.80
2023-02-16T11:45:01.628Z,29.20
2023-02-16T11:47:34.711Z,31.38
2023-02-16T11:50:17.609Z,32.80
2023-02-16T11:52:49.637Z,30.25
2023-02-16T11:55:23.138Z,27.67
2023-02-16T11:57:52.266Z,29.88
2023-02-16T12:00:23.371Z,25.35
2023-02-16T12:03:03.781Z,25.98
2023-02-16T12:05:38.076Z,30.35
2023-02-16T12:08:16.852Z,28.38
2023-02-16T12:10:52.977Z,26.25
2023-02-16T12:13:27.523Z,30.08
2023-02-16T12:16:00.913Z,29.40
2023-02-16T12:18:34.365Z,23.58
2023-02-16T12:21:10.787Z,28.17
2023-02-16T12:23:43.314Z,26.67
2023-02-16T12:26:22.468Z,26.15
2023-02-16T12:28:53.632Z,26.77
2023-02-16T12:31:27.579Z,25.58
2023-02-16T12:34:05.859Z,24.17
2023-02-16T12:36:48.374Z,31.25
2023-02-16T12:39:25.833Z,28.33
2023-02-16T12:42:13.238Z,28.92
2023-02-16T12:44:48.146Z,31.35
2023-02-16T12:47:26.886Z,25.98
2023-02-16T12:49:57.812Z,27.10
2023-02-16T12:52:34.114Z,21.00
2023-02-16T12:55:16.944Z,21.38
2023-02-16T12:57:53.028Z,17.33
2023-02-16T13:00:27.106Z,22.13
2023-02-16T13:03:04.896Z,21.25
2023-02-16T13:05:38.765Z,21.85
2023-02-16T13:08:15.235Z,22.83
2023-02-16T13:10:57.702Z,18.40
2023-02-16T13:13:28.336Z,20.77
2023-02-16T13:16:03.386Z,19.05
2023-02-16T13:18:38.375Z,20.98
2023-02-16T13:21:11.000Z,18.70
2023-02-16T13:23:52.673Z,19.77
2023-02-16T13:26:50.505Z,17.98
2023-02-16T13:30:04.386Z,16.15
2023-02-16T13:32:52.309Z,20.20
2023-02-16T13:35:37.558Z,18.67
2023-02-16T13:38:28.885Z,23.35
2023-02-16T13:41:09.504Z,21.73
2023-02-16T13:43:42.641Z,21.20
2023-02-16T13:46:16.531Z,22.23
2023-02-16T13:48:48.744Z,19.75
2023-02-16T13:51:18.323Z,21.15
2023-02-16T13:53:52.932Z,21.95
2023-02-16T13:56:23.451Z,20.13
2023-02-16T13:58:54.385Z,18.25
2023-02-16T14:01:40.074Z,20.40
2023-02-16T14:04:12.922Z,20.20
2023-02-16T14:06:42.859Z,22.50
2023-02-16T14:09:33.695Z,21.38
2023-02-16T14:12:19.866Z,19.70
2023-02-16T14:14:57.936Z,15.80
2023-02-16T14:17:28.104Z,17.25
2023-02-16T14:19:57.809Z,17.80
2023-02-16T14:22:30.427Z,16.30
2023-02-16T14:25:00.690Z,15.23
2023-02-16T14:27:42.751Z,15.25
2023-02-16T14:30:17.964Z,16.42
2023-02-16T14:32:48.660Z,13.85
2023-02-16T14:35:20.187Z,14.68
2023-02-16T14:37:54.851Z,14.52
2023-02-16T14:40:24.410Z,16.02
2023-02-16T14:42:57.980Z,16.52
2023-02-16T14:45:46.315Z,15.18
2023-02-16T14:48:20.296Z,13.48
2023-02-16T14:50:55.340Z,14.13
2023-02-16T14:53:42.646Z,14.20
2023-02-16T14:56:30.448Z,14.38
2023-02-16T14:59:02.093Z,14.27
2023-02-16T15:01:40.447Z,14.82
2023-02-16T15:04:11.182Z,15.25
2023-02-16T15:06:42.266Z,12.68
2023-02-16T15:09:16.526Z,14.15
2023-02-16T15:12:03.734Z,12.93
2023-02-16T15:14:33.494Z,14.45
2023-02-16T15:17:07.946Z,16.13
2023-02-16T15:19:37.037Z,15.68
2023-02-16T15:22:13.130Z,13.02
2023-02-16T15:24:43.161Z,15.43
2023-02-16T15:27:21.791Z,14.20
2023-02-16T15:30:04.390Z,15.18
2023-02-16T15:32:35.061Z,15.35
2023-02-16T15:35:11.568Z,14.77
2023-02-16T15:37:40.592Z,15.05
2023-02-16T15:40:25.486Z,14.45
2023-02-16T15:42:56.884Z,15.70
2023-02-16T15:45:29.210Z,14.23
2023-02-16T15:48:12.530Z,15.43
2023-02-16T15:50:42.630Z,16.40
2023-02-16T15:53:13.373Z,16.77
2023-02-16T15:55:45.545Z,16.55
2023-02-16T15:58:15.829Z,15.40
2023-02-16T16:00:45.142Z,17.85
2023-02-16T16:03:17.164Z,14.82
2023-02-16T16:05:55.416Z,17.30
2023-02-16T16:08:24.991Z,17.70
2023-02-16T16:10:53.802Z,15.63
2023-02-16T16:13:23.177Z,16.77
2023-02-16T16:15:52.817Z,14.50
2023-02-16T16:18:37.472Z,14.65
2023-02-16T16:21:13.669Z,14.13
2023-02-16T16:23:42.610Z,13.93
2023-02-16T16:26:20.893Z,14.80
2023-02-16T16:28:49.366Z,20.15
2023-02-16T16:31:19.029Z,16.92
2023-02-16T16:33:54.814Z,18.45
2023-02-16T16:36:29.277Z,16.90
2023-02-16T16:39:10.957Z,19.95
2023-02-16T16:41:40.444Z,18.17
2023-02-16T16:44:11.973Z,18.23
2023-02-16T16:46:40.712Z,18.30
2023-02-16T16:49:16.446Z,18.77
2023-02-16T16:51:46.444Z,14.52
2023-02-16T16:54:32.489Z,17.40
2023-02-16T16:57:01.397Z,17.30
2023-02-16T16:59:29.603Z,15.93
2023-02-16T17:01:57.995Z,20.77
2023-02-16T17:04:28.039Z,17.70
2023-02-16T17:06:57.763Z,16.10
2023-02-16T17:09:26.059Z,15.82
2023-02-16T17:11:55.262Z,15.55
2023-02-16T17:14:25.974Z,19.15
2023-02-16T17:16:56.502Z,17.17
2023-02-16T17:19:26.146Z,15.70
2023-02-16T17:21:54.415Z,18.48
2023-02-16T17:24:23.984Z,16.48
2023-02-16T17:26:52.197Z,18.73
2023-02-16T17:29:20.933Z,15.40
2023-02-16T17:31:50.724Z,17.83
2023-02-16T17:34:19.487Z,17.98
2023-02-16T17:36:47.979Z,17.92
2023-02-16T17:39:16.418Z,16.58
2023-02-16T17:41:46.593Z,16.50
2023-02-16T17:44:15.067Z,17.73
2023-02-16T17:46:44.625Z,18.75
2023-02-16T17:49:13.523Z,18.52
2023-02-16T17:51:42.237Z,15.73
2023-02-16T17:54:10.512Z,16.30
2023-02-16T17:56:41.937Z,19.88
2023-02-16T17:59:15.401Z,18.10
2023-02-16T18:01:43.924Z,21.63
2023-02-16T18:04:12.425Z,17.58
2023-02-16T18:06:40.679Z,19.25
2023-02-16T18:09:10.898Z,20.52
2023-02-16T18:11:39.280Z,18.17
2023-02-16T18:14:07.460Z,18.52
2023-02-16T18:16:37.080Z,22.10
2023-02-16T18:19:08.339Z,21.13
2023-02-16T18:21:37.189Z,19.48
2023-02-16T18:24:05.851Z,22.30
2023-02-16T18:26:34.505Z,22.95
2023-02-16T18:29:02.962Z,22.70
2023-02-16T18:31:31.751Z,22.83
2023-02-16T18:34:01.714Z,22.17
2023-02-16T18:36:30.131Z,24.00
2023-02-16T18:38:58.842Z,21.05
2023-02-16T18:41:27.372Z,18.23
2023-02-16T18:43:55.807Z,23.88
2023-02-16T18:46:24.424Z,22.70
2023-02-16T18:48:53.023Z,22.50
2023-02-16T18:51:26.304Z,23.50
2023-02-16T18:53:54.655Z,24.70
2023-02-16T18:56:23.197Z,20.60
2023-02-16T18:58:51.776Z,22.65
2023-02-16T19:01:26.749Z,22.08
2023-02-16T19:03:55.294Z,23.55
2023-02-16T19:06:25.224Z,24.85
2023-02-16T19:08:53.621Z,23.27
2023-02-16T19:11:22.699Z,21.98
2023-02-16T19:13:51.023Z,21.65
2023-02-16T19:16:19.424Z,22.55
2023-02-16T19:18:47.821Z,23.85
2023-02-16T19:21:16.762Z,25.60
2023-02-16T19:23:46.719Z,26.08
2023-02-16T19:26:17.644Z,27.38
2023-02-16T19:28:46.844Z,24.95
2023-02-16T19:31:20.994Z,26.98
2023-02-16T19:33:49.683Z,24.45
2023-02-16T19:36:19.046Z,26.08
2023-02-16T19:38:48.946Z,25.40
2023-02-16T19:41:19.044Z,26.13
2023-02-16T19:43:47.928Z,24.08
2023-02-16T19:46:16.579Z,25.42
2023-02-16T19:48:46.061Z,25.38
2023-02-16T19:51:15.639Z,24.27
2023-02-16T19:53:44.997Z,21.40
2023-02-16T19:56:16.733Z,19.98
2023-02-16T19:58:45.675Z,19.65
2023-02-16T20:01:16.017Z,18.10
2023-02-16T20:03:44.935Z,22.20
2023-02-16T20:06:15.525Z,23.15
2023-02-16T20:08:44.072Z,21.08
2023-02-16T20:11:15.279Z,18.42
2023-02-16T20:13:45.386Z,16.60
2023-02-16T20:16:15.164Z,15.77
2023-02-16T20:18:44.048Z,18.40
2023-02-16T20:21:15.290Z,18.88
2023-02-16T20:23:43.919Z,15.18
2023-02-16T20:26:14.695Z,17.13
2023-02-16T20:28:44.731Z,14.07
2023-02-16T20:31:15.451Z,17.35
2023-02-16T20:33:43.975Z,17.55
2023-02-16T20:36:13.406Z,15.20
2023-02-16T20:38:41.875Z,17.48
2023-02-16T20:41:10.594Z,17.90
2023-02-16T20:43:39.435Z,18.15
2023-02-16T20:46:09.264Z,18.95
2023-02-16T20:48:39.289Z,17.63
2023-02-16T20:51:08.841Z,17.55
2023-02-16T20:53:37.449Z,16.42
2023-02-16T20:56:07.431Z,13.98
2023-02-16T20:58:37.194Z,18.55
2023-02-16T21:01:06.431Z,17.52
2023-02-16T21:03:34.923Z,15.75
2023-02-16T21:06:05.068Z,15.00
2023-02-16T21:08:34.318Z,18.35
2023-02-16T21:11:02.818Z,15.93
2023-02-16T21:13:31.374Z,16.38
2023-02-16T21:15:59.925Z,15.85
2023-02-16T21:18:28.418Z,14.98
2023-02-16T21:20:56.915Z,16.63
2023-02-16T21:23:26.820Z,13.52
2023-02-16T21:25:59.321Z,15.93
2023-02-16T21:28:28.308Z,13.57
2023-02-16T21:30:57.007Z,12.70
2023-02-16T21:33:25.441Z,13.60
2023-02-16T21:35:53.722Z,13.93
2023-02-16T21:38:22.049Z,12.25
2023-02-16T21:41:09.420Z,12.48
2023-02-16T21:43:37.693Z,12.38
2023-02-16T21:46:08.623Z,11.60
2023-02-16T21:48:48.244Z,10.90
2023-02-16T21:51:18.486Z,11.05
2023-02-16T21:53:47.182Z,10.15
2023-02-16T21:56:30.241Z,9.55
2023-02-16T21:58:58.950Z,8.55
2023-02-16T22:01:29.295Z,8.15
2023-02-16T22:03:59.408Z,9.15
2023-02-16T22:06:29.592Z,9.48
2023-02-16T22:08:58.020Z,9.20
2023-02-16T22:11:27.657Z,8.60
2023-02-16T22:13:57.257Z,7.90
2023-02-16T22:16:26.276Z,8.40
2023-02-16T22:18:58.521Z,7.25
2023-02-16T22:21:27.169Z,7.43
2023-02-16T22:23:55.973Z,8.05
2023-02-16T22:26:26.182Z,8.30
2023-02-16T22:28:56.201Z,7.65
2023-02-16T22:31:26.090Z,7.85
2023-02-16T22:33:57.779Z,8.25
2023-02-16T22:36:26.459Z,6.72
2023-02-16T22:38:55.518Z,6.43
2023-02-16T22:41:24.549Z,8.27
2023-02-16T22:43:55.699Z,8.13
2023-02-16T22:46:25.243Z,7.88
2023-02-16T22:48:54.092Z,6.70
2023-02-16T22:51:23.059Z,7.43
2023-02-16T22:53:51.496Z,7.22
2023-02-16T22:56:20.992Z,8.07
2023-02-16T22:58:49.498Z,7.65
2023-02-16T23:01:20.589Z,7.13
2023-02-16T23:03:49.449Z,7.18
2023-02-16T23:06:19.063Z,6.68
2023-02-16T23:08:47.852Z,7.97
2023-02-16T23:11:16.332Z,7.07
2023-02-16T23:13:44.911Z,7.57
2023-02-16T23:16:14.335Z,7.85
2023-02-16T23:18:44.585Z,4.13
2023-02-16T23:21:17.239Z,5.93
2023-02-16T23:23:45.802Z,7.35
2023-02-16T23:26:14.573Z,7.57
2023-02-16T23:28:44.017Z,7.38
2023-02-16T23:31:13.728Z,7.35
2023-02-16T23:33:44.025Z,7.75
2023-02-16T23:36:12.360Z,7.95
2023-02-16T23:38:40.598Z,5.40
2023-02-16T23:41:12.202Z,7.22
2023-02-16T23:43:40.992Z,5.97
2023-02-16T23:46:10.556Z,8.77
2023-02-16T23:48:39.489Z,7.57
2023-02-16T23:51:11.940Z,7.55
2023-02-16T23:53:40.327Z,8.48
2023-02-16T23:56:12.299Z,7.65
2023-02-16T23:58:42.291Z,8.10
